createdAt,value
2023-02-11T00:01:36.882Z,103127.94
2023-02-11T00:06:39.869Z,103131.22
2023-02-11T00:11:42.717Z,103098.56
2023-02-11T00:16:45.643Z,103100.06
2023-02-11T00:21:48.733Z,103100.34
2023-02-11T00:26:51.703Z,103094.34
2023-02-11T00:31:54.642Z,103114.63
2023-02-11T00:37:00.111Z,103094.22
2023-02-11T00:42:03.403Z,103088.72
2023-02-11T00:47:06.327Z,103097.28
2023-02-11T00:52:09.276Z,103096.84
2023-02-11T00:57:11.988Z,103097.34
2023-02-11T01:02:14.892Z,103051.66
2023-02-11T01:17:56.382Z,103079.56
2023-02-11T01:22:59.073Z,103069.78
2023-02-11T01:28:02.026Z,103092.84
2023-02-11T01:33:07.078Z,103087.63
2023-02-11T01:38:31.660Z,103099.81
2023-02-11T01:43:42.894Z,103060.47
2023-02-11T01:48:50.732Z,103091.97
2023-02-11T01:54:16.980Z,103070.66
2023-02-11T01:59:34.985Z,103092.06
2023-02-11T02:04:46.359Z,103065.41
2023-02-11T02:09:56.828Z,103096.91
2023-02-11T02:15:36.893Z,103080.34
2023-02-11T02:21:07.481Z,103081.63
2023-02-11T02:26:31.781Z,103094.19
2023-02-11T02:32:13.375Z,103064.91
2023-02-11T02:37:25.103Z,103092.94
2023-02-11T02:42:28.352Z,103079.75
2023-02-11T02:47:31.371Z,103052.41
2023-02-11T02:52:54.045Z,103065.84
2023-02-11T02:58:24.196Z,103072.31
2023-02-11T03:03:53.147Z,103074.91
2023-02-11T03:09:04.362Z,103042.44
2023-02-11T03:14:11.051Z,103061.09
2023-02-11T03:19:20.249Z,103053.66
2023-02-11T03:24:37.937Z,103059.41
2023-02-11T03:29:56.144Z,103059.66
2023-02-11T03:35:07.435Z,103054.59
2023-02-11T03:40:13.846Z,103052.81
2023-02-11T03:45:20.315Z,103063.28
2023-02-11T03:50:25.352Z,103061.09
2023-02-11T03:55:30.220Z,103051.72
2023-02-11T04:00:36.923Z,103058.31
2023-02-11T04:05:40.270Z,103009.34
2023-02-11T04:10:43.107Z,103031.06
2023-02-11T04:15:48.545Z,103029.78
2023-02-11T04:20:51.914Z,103054.97
2023-02-11T04:25:54.828Z,103043.75
2023-02-11T04:30:57.765Z,103039.41
2023-02-11T04:36:00.680Z,103025.63
2023-02-11T04:41:03.579Z,103044.19
2023-02-11T04:46:06.437Z,103043.00
2023-02-11T04:51:09.167Z,103019.97
2023-02-11T04:56:12.227Z,102998.97
2023-02-11T05:01:16.073Z,103024.31
2023-02-11T05:06:19.421Z,103001.53
2023-02-11T05:11:25.147Z,103010.06
2023-02-11T05:16:28.593Z,102994.59
2023-02-11T05:21:31.673Z,102990.75
2023-02-11T05:26:34.523Z,103036.31
2023-02-11T05:31:37.395Z,103008.88
2023-02-11T05:36:40.522Z,103042.16
2023-02-11T05:41:43.294Z,103034.22
2023-02-11T05:46:46.178Z,103040.59
2023-02-11T05:51:49.315Z,103043.69
2023-02-11T05:56:52.469Z,103026.94
2023-02-11T06:01:55.495Z,103008.69
2023-02-11T06:06:58.348Z,103022.75
2023-02-11T06:12:01.167Z,103029.63
2023-02-11T06:17:04.736Z,103020.69
2023-02-11T06:22:07.741Z,103014.88
2023-02-11T06:27:10.875Z,103040.44
2023-02-11T06:32:36.872Z,103033.63
2023-02-11T06:37:36.836Z,103036.81
2023-02-11T06:42:39.933Z,103019.94
2023-02-11T06:47:43.071Z,103005.41
2023-02-11T06:52:46.271Z,102999.66
2023-02-11T06:57:49.057Z,102996.50
2023-02-11T07:02:51.933Z,103003.72
2023-02-11T07:07:54.945Z,102995.19
2023-02-11T07:12:58.898Z,102973.97
2023-02-11T07:18:01.704Z,102972.78
2023-02-11T07:23:04.789Z,102977.91
2023-02-11T07:28:07.542Z,102979.56
2023-02-11T07:33:10.328Z,102951.19
2023-02-11T07:38:13.125Z,102960.94
2023-02-11T07:43:16.223Z,102960.91
2023-02-11T07:48:19.203Z,102982.69
2023-02-11T07:53:22.380Z,102980.88
2023-02-11T07:58:25.401Z,102974.41
2023-02-11T08:03:28.735Z,102978.34
2023-02-11T08:08:31.567Z,102950.44
2023-02-11T08:13:34.678Z,102952.31
2023-02-11T08:18:37.668Z,102927.59
2023-02-11T08:23:42.622Z,102933.75
2023-02-11T08:28:46.663Z,102946.84
2023-02-11T08:33:49.971Z,102938.84
2023-02-11T08:39:05.612Z,102926.78
2023-02-11T08:44:15.048Z,102911.09
2023-02-11T08:49:17.998Z,102890.34
2023-02-11T08:54:20.961Z,102869.44
2023-02-11T08:59:24.334Z,102896.16
2023-02-11T09:04:27.199Z,102890.22
2023-02-11T09:09:30.299Z,102871.47
2023-02-11T09:14:33.355Z,102852.47
2023-02-11T09:19:36.334Z,102854.78
2023-02-11T09:24:39.212Z,102848.44
2023-02-11T09:29:42.116Z,102830.16
2023-02-11T09:34:45.080Z,102789.97
2023-02-11T09:39:48.016Z,102808.63
2023-02-11T09:44:51.255Z,102807.00
2023-02-11T09:50:02.979Z,102804.91
2023-02-11T09:55:17.470Z,102789.13
2023-02-11T10:00:40.324Z,102797.97
2023-02-11T10:06:16.635Z,102796.13
2023-02-11T10:12:04.808Z,102794.69
2023-02-11T10:17:19.111Z,102798.09
2023-02-11T10:22:35.659Z,102801.78
2023-02-11T10:27:38.596Z,102809.72
2023-02-11T10:32:53.825Z,102790.00
2023-02-11T10:37:57.179Z,102770.78
2023-02-11T10:43:04.337Z,102770.78
2023-02-11T10:48:42.633Z,102773.84
2023-02-11T10:53:47.450Z,102733.63
2023-02-11T10:59:21.749Z,102750.34
2023-02-11T11:04:30.831Z,102749.78
2023-02-11T11:09:46.141Z,102738.66
2023-02-11T11:14:56.841Z,102736.09
2023-02-11T11:20:32.397Z,102726.28
2023-02-11T11:25:39.083Z,102731.00
2023-02-11T11:30:43.515Z,102720.59
2023-02-11T11:36:07.100Z,102740.25
2023-02-11T11:41:29.412Z,102738.16
2023-02-11T11:46:39.510Z,102713.56
2023-02-11T11:51:48.160Z,102739.88
2023-02-11T11:57:15.537Z,102710.59
2023-02-11T12:02:57.392Z,102738.22
2023-02-11T12:08:14.313Z,102718.63
2023-02-11T12:13:32.258Z,102740.31
2023-02-11T12:19:14.930Z,102711.81
2023-02-11T12:24:24.425Z,102731.53
2023-02-11T12:29:36.240Z,102728.19
2023-02-11T12:34:39.183Z,102721.06
2023-02-11T12:39:51.466Z,102700.19
2023-02-11T12:44:54.101Z,102710.56
2023-02-11T12:50:36.496Z,102696.38
2023-02-11T12:55:45.043Z,102691.81
2023-02-11T13:00:55.588Z,102705.56
2023-02-11T13:06:05.647Z,102695.56
2023-02-11T13:11:15.294Z,102712.09
2023-02-11T13:16:40.844Z,102672.22
2023-02-11T13:21:49.992Z,102703.53
2023-02-11T13:27:08.097Z,102700.72
2023-02-11T13:32:13.700Z,102680.16
2023-02-11T13:37:38.904Z,102690.19
2023-02-11T13:42:52.875Z,102685.19
2023-02-11T13:48:08.538Z,102671.41
2023-02-11T13:53:11.507Z,102675.81
2023-02-11T13:58:15.624Z,102676.47
2023-02-11T14:03:44.237Z,102685.00
2023-02-11T14:09:11.863Z,102681.38
2023-02-11T14:14:19.122Z,102671.91
2023-02-11T14:19:40.237Z,102673.81
2023-02-11T14:24:58.142Z,102668.41
2023-02-11T14:30:09.783Z,102663.66
2023-02-11T14:35:47.688Z,102671.31
2023-02-11T14:41:06.934Z,102679.69
2023-02-11T14:46:10.371Z,102670.72
2023-02-11T14:51:19.841Z,102673.19
2023-02-11T14:56:28.398Z,102650.25
2023-02-11T15:01:36.914Z,102626.31
2023-02-11T15:06:48.163Z,102632.44
2023-02-11T15:11:52.508Z,102664.53
2023-02-11T15:16:59.159Z,102644.78
2023-02-11T15:22:07.893Z,102679.13
2023-02-11T15:27:14.860Z,102637.75
2023-02-11T15:32:18.016Z,102667.00
2023-02-11T15:37:32.183Z,102619.88
2023-02-11T15:42:47.378Z,102653.81
2023-02-11T15:48:00.500Z,102666.22
2023-02-11T15:53:40.845Z,102672.97
2023-02-11T15:58:46.996Z,102654.84
2023-02-11T16:03:51.454Z,102650.59
2023-02-11T16:09:01.664Z,102660.44
2023-02-11T16:14:20.135Z,102659.69
2023-02-11T16:19:25.887Z,102662.13
2023-02-11T16:24:33.838Z,102640.47
2023-02-11T16:29:38.220Z,102653.50
2023-02-11T16:34:40.846Z,102640.41
2023-02-11T16:39:43.804Z,102615.97
2023-02-11T16:44:46.807Z,102645.03
2023-02-11T16:49:49.993Z,102629.06
2023-02-11T16:54:53.293Z,102624.19
2023-02-11T16:59:56.253Z,102617.28
2023-02-11T17:05:01.653Z,102620.25
2023-02-11T17:10:16.547Z,102598.47
2023-02-11T17:15:19.441Z,102599.56
2023-02-11T17:20:22.530Z,102591.69
2023-02-11T17:25:25.338Z,102594.44
2023-02-11T17:30:28.088Z,102588.63
2023-02-11T17:35:31.012Z,102563.28
2023-02-11T17:40:34.080Z,102575.50
2023-02-11T17:45:42.589Z,102553.72
2023-02-11T17:50:46.067Z,102571.97
2023-02-11T17:55:49.356Z,102547.59
2023-02-11T18:00:52.631Z,102536.69
2023-02-11T18:06:00.700Z,102548.91
2023-02-11T18:11:03.829Z,102544.34
2023-02-11T18:16:16.049Z,102536.69
2023-02-11T18:21:22.101Z,102536.94
2023-02-11T18:26:28.471Z,102543.81
2023-02-11T18:31:31.786Z,102523.09
2023-02-11T18:36:35.884Z,102503.34
2023-02-11T18:41:40.323Z,102527.03
2023-02-11T18:46:43.253Z,102518.81
2023-02-11T18:51:47.586Z,102514.69
2023-02-11T18:56:50.439Z,102496.97
2023-02-11T19:01:53.382Z,102484.38
2023-02-11T19:06:56.373Z,102492.97
2023-02-11T19:12:01.184Z,102468.94
2023-02-11T19:17:06.911Z,102484.22
2023-02-11T19:22:10.907Z,102474.19
2023-02-11T19:27:13.924Z,102465.75
2023-02-11T19:32:16.987Z,102445.16
2023-02-11T19:37:19.920Z,102449.88
2023-02-11T19:42:22.777Z,102454.47
2023-02-11T19:47:28.087Z,102428.59
2023-02-11T19:52:30.986Z,102421.53
2023-02-11T19:57:34.202Z,102444.66
2023-02-11T20:02:39.802Z,102418.59
2023-02-11T20:07:42.611Z,102404.63
2023-02-11T20:12:45.299Z,102417.19
2023-02-11T20:17:48.233Z,102390.47
2023-02-11T20:22:52.352Z,102388.28
2023-02-11T20:27:55.353Z,102396.16
2023-02-11T20:32:58.837Z,102388.50
2023-02-11T20:38:03.300Z,102399.31
2023-02-11T20:43:06.082Z,102389.63
2023-02-11T20:48:08.969Z,102389.41
2023-02-11T20:53:11.831Z,102397.47
2023-02-11T20:58:14.590Z,102393.31
2023-02-11T21:03:17.470Z,102386.88
2023-02-11T21:08:20.350Z,102388.03
2023-02-11T21:13:23.183Z,102362.56
2023-02-11T21:18:26.394Z,102375.06
2023-02-11T21:23:29.709Z,102354.91
2023-02-11T21:28:32.918Z,102332.53
2023-02-11T21:33:36.143Z,102354.41
2023-02-11T21:38:38.946Z,102337.09
2023-02-11T21:43:42.203Z,102373.59
2023-02-11T21:48:45.051Z,102332.41
2023-02-11T21:53:48.553Z,102343.69
2023-02-11T21:58:54.361Z,102334.75
2023-02-11T22:03:58.048Z,102313.28
2023-02-11T22:09:07.960Z,102309.00
2023-02-11T22:14:10.732Z,102328.31
2023-02-11T22:19:14.605Z,102312.41
2023-02-11T22:24:17.707Z,102261.03
2023-02-11T22:29:20.626Z,102289.41
2023-02-11T22:34:23.304Z,102283.72
2023-02-11T22:39:26.239Z,102286.69
2023-02-11T22:44:29.065Z,102272.47
2023-02-11T22:49:33.462Z,102270.66
2023-02-11T22:54:36.566Z,102267.56
2023-02-11T22:59:39.493Z,102277.59
2023-02-11T23:04:42.342Z,102258.75
2023-02-11T23:09:45.457Z,102245.88
2023-02-11T23:14:48.484Z,102249.56
2023-02-11T23:19:51.523Z,102261.88
2023-02-11T23:24:54.578Z,102236.41
2023-02-11T23:29:57.703Z,102228.22
2023-02-11T23:35:01.052Z,102224.50
2023-02-11T23:40:04.540Z,102241.88
2023-02-11T23:45:08.771Z,102245.41
2023-02-11T23:50:12.489Z,102234.16
2023-02-11T23:55:15.213Z,102209.53
